sensor_id;sensor_type;location;lat;lon;timestamp;pressure;altitude;pressure_sealevel;temperature;humidity
60654;BME280;46476;53.614;10.048;2022-07-05T00:02:02;101681.50;;;20.59;48.56
60654;BME280;46476;53.614;10.048;2022-07-05T00:04:28;101688.06;;;20.58;48.33
60654;BME280;46476;53.614;10.048;2022-07-05T00:06:53;101684.47;;;20.58;48.53
60654;BME280;46476;53.614;10.048;2022-07-05T00:09:37;101686.34;;;20.57;48.58
60654;BME280;46476;53.614;10.048;2022-07-05T00:12:03;101688.06;;;20.58;48.72
60654;BME280;46476;53.614;10.048;2022-07-05T00:14:28;101687.41;;;20.56;48.67
60654;BME280;46476;53.614;10.048;2022-07-05T00:16:53;101685.03;;;20.53;48.76
60654;BME280;46476;53.614;10.048;2022-07-05T00:19:19;101689.91;;;20.51;48.93
60654;BME280;46476;53.614;10.048;2022-07-05T00:21:44;101684.56;;;20.50;48.82
60654;BME280;46476;53.614;10.048;2022-07-05T00:24:10;101678.63;;;20.46;48.77
60654;BME280;46476;53.614;10.048;2022-07-05T00:26:35;101685.75;;;20.40;49.07
60654;BME280;46476;53.614;10.048;2022-07-05T00:29:00;101686.97;;;20.38;49.11
60654;BME280;46476;53.614;10.048;2022-07-05T00:31:25;101687.84;;;20.38;49.03
60654;BME280;46476;53.614;10.048;2022-07-05T00:33:51;101680.84;;;20.36;49.11
60654;BME280;46476;53.614;10.048;2022-07-05T00:36:16;101682.72;;;20.35;49.37
60654;BME280;46476;53.614;10.048;2022-07-05T00:38:41;101686.72;;;20.33;49.34
60654;BME280;46476;53.614;10.048;2022-07-05T00:41:06;101676.75;;;20.32;49.24
60654;BME280;46476;53.614;10.048;2022-07-05T00:43:32;101679.06;;;20.28;49.34
60654;BME280;46476;53.614;10.048;2022-07-05T00:45:57;101677.53;;;20.25;49.47
60654;BME280;46476;53.614;10.048;2022-07-05T00:48:23;101684.66;;;20.20;49.65
60654;BME280;46476;53.614;10.048;2022-07-05T00:50:50;101690.34;;;20.18;49.62
60654;BME280;46476;53.614;10.048;2022-07-05T00:53:16;101684.00;;;20.18;49.83
60654;BME280;46476;53.614;10.048;2022-07-05T00:55:43;101685.88;;;20.17;49.64
60654;BME280;46476;53.614;10.048;2022-07-05T00:58:09;101680.38;;;20.17;49.96
60654;BME280;46476;53.614;10.048;2022-07-05T01:00:34;101678.88;;;20.15;49.85
60654;BME280;46476;53.614;10.048;2022-07-05T01:03:00;101673.38;;;20.15;49.89
60654;BME280;46476;53.614;10.048;2022-07-05T01:05:27;101684.22;;;20.16;49.73
60654;BME280;46476;53.614;10.048;2022-07-05T01:07:52;101682.28;;;20.17;49.85
60654;BME280;46476;53.614;10.048;2022-07-05T01:10:18;101681.72;;;20.21;49.79
60654;BME280;46476;53.614;10.048;2022-07-05T01:12:44;101681.53;;;20.23;49.54
60654;BME280;46476;53.614;10.048;2022-07-05T01:15:09;101678.59;;;20.24;50.00
60654;BME280;46476;53.614;10.048;2022-07-05T01:17:35;101681.53;;;20.23;49.87
60654;BME280;46476;53.614;10.048;2022-07-05T01:20:05;101676.22;;;20.21;49.90
60654;BME280;46476;53.614;10.048;2022-07-05T01:22:51;101680.38;;;20.17;49.89
60654;BME280;46476;53.614;10.048;2022-07-05T01:25:21;101678.44;;;20.11;49.87
60654;BME280;46476;53.614;10.048;2022-07-05T01:27:47;101672.94;;;20.11;50.05
60654;BME280;46476;53.614;10.048;2022-07-05T01:30:13;101677.75;;;20.09;50.12
60654;BME280;46476;53.614;10.048;2022-07-05T01:32:39;101671.41;;;20.08;49.93
60654;BME280;46476;53.614;10.048;2022-07-05T01:35:05;101676.72;;;20.10;49.67
60654;BME280;46476;53.614;10.048;2022-07-05T01:37:31;101673.97;;;20.10;50.17
60654;BME280;46476;53.614;10.048;2022-07-05T01:39:57;101673.09;;;20.09;50.19
60654;BME280;46476;53.614;10.048;2022-07-05T01:42:23;101676.03;;;20.08;49.91
60654;BME280;46476;53.614;10.048;2022-07-05T01:44:49;101669.22;;;20.04;50.14
60654;BME280;46476;53.614;10.048;2022-07-05T01:47:15;101667.91;;;20.00;50.09
60654;BME280;46476;53.614;10.048;2022-07-05T01:49:43;101666.22;;;19.99;50.50
60654;BME280;46476;53.614;10.048;2022-07-05T01:52:12;101670.38;;;19.94;50.49
60654;BME280;46476;53.614;10.048;2022-07-05T01:54:38;101672.47;;;19.92;50.79
60654;BME280;46476;53.614;10.048;2022-07-05T01:57:05;101669.72;;;19.92;50.88
60654;BME280;46476;53.614;10.048;2022-07-05T01:59:34;101668.00;;;19.91;50.91
60654;BME280;46476;53.614;10.048;2022-07-05T02:02:00;101666.31;;;19.90;50.95
60654;BME280;46476;53.614;10.048;2022-07-05T02:04:26;101665.25;;;19.91;50.91
60654;BME280;46476;53.614;10.048;2022-07-05T02:06:52;101672.47;;;19.92;51.07
60654;BME280;46476;53.614;10.048;2022-07-05T02:09:18;101666.97;;;19.92;51.03
60654;BME280;46476;53.614;10.048;2022-07-05T02:11:43;101673.34;;;19.93;51.06
60654;BME280;46476;53.614;10.048;2022-07-05T02:14:08;101673.50;;;19.91;51.03
60654;BME280;46476;53.614;10.048;2022-07-05T02:16:33;101673.69;;;19.90;51.08
60654;BME280;46476;53.614;10.048;2022-07-05T02:18:59;101665.16;;;19.85;51.38
60654;BME280;46476;53.614;10.048;2022-07-05T02:21:25;101673.63;;;19.83;51.24
60654;BME280;46476;53.614;10.048;2022-07-05T02:23:50;101676.03;;;19.78;51.36
60654;BME280;46476;53.614;10.048;2022-07-05T02:26:16;101677.75;;;19.79;51.70
60654;BME280;46476;53.614;10.048;2022-07-05T02:28:41;101683.56;;;19.84;51.69
60654;BME280;46476;53.614;10.048;2022-07-05T02:31:07;101686.13;;;19.86;51.50
60654;BME280;46476;53.614;10.048;2022-07-05T02:33:32;101682.53;;;19.85;51.41
60654;BME280;46476;53.614;10.048;2022-07-05T02:36:08;101681.66;;;19.85;51.53
60654;BME280;46476;53.614;10.048;2022-07-05T02:38:34;101688.22;;;19.84;51.39
60654;BME280;46476;53.614;10.048;2022-07-05T02:40:59;101682.72;;;19.84;51.64
60654;BME280;46476;53.614;10.048;2022-07-05T02:43:25;101695.59;;;19.83;51.55
60654;BME280;46476;53.614;10.048;2022-07-05T02:45:50;101691.81;;;19.84;51.48
60654;BME280;46476;53.614;10.048;2022-07-05T02:48:15;101690.47;;;19.80;51.57
60654;BME280;46476;53.614;10.048;2022-07-05T02:50:41;101693.41;;;19.78;51.60
60654;BME280;46476;53.614;10.048;2022-07-05T02:53:06;101693.78;;;19.75;51.36
60654;BME280;46476;53.614;10.048;2022-07-05T02:55:31;101694.81;;;19.74;51.63
60654;BME280;46476;53.614;10.048;2022-07-05T02:57:56;101687.63;;;19.73;51.67
60654;BME280;46476;53.614;10.048;2022-07-05T03:00:23;101689.50;;;19.73;51.47
60654;BME280;46476;53.614;10.048;2022-07-05T03:02:48;101686.75;;;19.73;51.64
60654;BME280;46476;53.614;10.048;2022-07-05T03:05:13;101696.03;;;19.72;51.64
60654;BME280;46476;53.614;10.048;2022-07-05T03:07:39;101686.00;;;19.64;51.57
60654;BME280;46476;53.614;10.048;2022-07-05T03:10:04;101689.31;;;19.59;51.80
60654;BME280;46476;53.614;10.048;2022-07-05T03:12:30;101694.81;;;19.59;51.86
60654;BME280;46476;53.614;10.048;2022-07-05T03:14:55;101697.38;;;19.61;51.92
60654;BME280;46476;53.614;10.048;2022-07-05T03:17:20;101705.81;;;19.59;51.94
60654;BME280;46476;53.614;10.048;2022-07-05T03:19:45;101698.78;;;19.57;52.06
60654;BME280;46476;53.614;10.048;2022-07-05T03:22:11;101690.56;;;19.57;52.04
60654;BME280;46476;53.614;10.048;2022-07-05T03:24:37;101692.06;;;19.59;51.78
60654;BME280;46476;53.614;10.048;2022-07-05T03:27:03;101694.81;;;19.59;52.01
60654;BME280;46476;53.614;10.048;2022-07-05T03:29:28;101696.69;;;19.59;52.11
60654;BME280;46476;53.614;10.048;2022-07-05T03:31:54;101701.72;;;19.55;52.20
60654;BME280;46476;53.614;10.048;2022-07-05T03:34:19;101697.28;;;19.54;52.24
60654;BME280;46476;53.614;10.048;2022-07-05T03:36:44;101705.13;;;19.57;52.09
60654;BME280;46476;53.614;10.048;2022-07-05T03:39:10;101702.03;;;19.60;51.85
60654;BME280;46476;53.614;10.048;2022-07-05T03:41:35;101700.31;;;19.59;51.92
60654;BME280;46476;53.614;10.048;2022-07-05T03:44:00;101704.47;;;19.55;52.11
60654;BME280;46476;53.614;10.048;2022-07-05T03:46:25;101701.06;;;19.53;51.93
60654;BME280;46476;53.614;10.048;2022-07-05T03:48:51;101700.38;;;19.51;52.41
60654;BME280;46476;53.614;10.048;2022-07-05T03:51:17;101706.75;;;19.52;52.21
60654;BME280;46476;53.614;10.048;2022-07-05T03:53:42;101701.06;;;19.53;52.14
60654;BME280;46476;53.614;10.048;2022-07-05T03:56:08;101702.75;;;19.54;52.30
60654;BME280;46476;53.614;10.048;2022-07-05T03:58:33;101705.31;;;19.56;52.21
60654;BME280;46476;53.614;10.048;2022-07-05T04:00:58;101700.84;;;19.55;52.04
60654;BME280;46476;53.614;10.048;2022-07-05T04:03:24;101701.72;;;19.55;51.96
60654;BME280;46476;53.614;10.048;2022-07-05T04:05:49;101692.91;;;19.60;52.13
60654;BME280;46476;53.614;10.048;2022-07-05T04:08:14;101691.97;;;19.68;51.91
60654;BME280;46476;53.614;10.048;2022-07-05T04:10:40;101693.88;;;19.67;51.45
60654;BME280;46476;53.614;10.048;2022-07-05T04:13:05;101702.97;;;19.53;52.15
60654;BME280;46476;53.614;10.048;2022-07-05T04:15:30;101713.84;;;19.61;52.31
60654;BME280;46476;53.614;10.048;2022-07-05T04:17:56;101724.19;;;19.74;52.06
60654;BME280;46476;53.614;10.048;2022-07-05T04:20:22;101724.41;;;19.87;51.61
60654;BME280;46476;53.614;10.048;2022-07-05T04:22:48;101717.97;;;19.95;51.42
60654;BME280;46476;53.614;10.048;2022-07-05T04:25:14;101726.69;;;19.99;51.25
60654;BME280;46476;53.614;10.048;2022-07-05T04:27:53;101729.81;;;19.95;51.22
60654;BME280;46476;53.614;10.048;2022-07-05T04:30:20;101723.53;;;20.02;50.92
60654;BME280;46476;53.614;10.048;2022-07-05T04:32:48;101722.59;;;20.09;50.95
60654;BME280;46476;53.614;10.048;2022-07-05T04:35:13;101712.75;;;20.15;50.89
60654;BME280;46476;53.614;10.048;2022-07-05T04:37:39;101720.59;;;20.18;50.92
60654;BME280;46476;53.614;10.048;2022-07-05T04:40:06;101720.03;;;20.23;50.68
60654;BME280;46476;53.614;10.048;2022-07-05T04:42:32;101721.75;;;20.24;50.60
60654;BME280;46476;53.614;10.048;2022-07-05T04:44:58;101724.28;;;20.25;50.52
60654;BME280;46476;53.614;10.048;2022-07-05T04:47:23;101730.06;;;20.31;50.56
60654;BME280;46476;53.614;10.048;2022-07-05T04:49:50;101725.22;;;20.33;50.34
60654;BME280;46476;53.614;10.048;2022-07-05T04:52:15;101725.50;;;20.38;50.39
60654;BME280;46476;53.614;10.048;2022-07-05T04:54:41;101722.03;;;20.29;50.66
60654;BME280;46476;53.614;10.048;2022-07-05T04:57:06;101727.97;;;20.33;50.70
60654;BME280;46476;53.614;10.048;2022-07-05T04:59:31;101725.13;;;20.41;50.36
60654;BME280;46476;53.614;10.048;2022-07-05T05:01:57;101727.47;;;20.44;50.28
60654;BME280;46476;53.614;10.048;2022-07-05T05:04:22;101730.91;;;20.46;50.29
60654;BME280;46476;53.614;10.048;2022-07-05T05:06:47;101732.00;;;20.52;50.15
60654;BME280;46476;53.614;10.048;2022-07-05T05:09:13;101732.47;;;20.55;50.01
60654;BME280;46476;53.614;10.048;2022-07-05T05:11:38;101737.59;;;20.58;49.87
60654;BME280;46476;53.614;10.048;2022-07-05T05:14:03;101740.53;;;20.57;50.08
60654;BME280;46476;53.614;10.048;2022-07-05T05:16:29;101733.38;;;20.63;49.88
60654;BME280;46476;53.614;10.048;2022-07-05T05:18:54;101740.22;;;20.67;49.65
60654;BME280;46476;53.614;10.048;2022-07-05T05:21:20;101741.75;;;20.69;49.88
60654;BME280;46476;53.614;10.048;2022-07-05T05:23:45;101731.41;;;20.71;49.66
60654;BME280;46476;53.614;10.048;2022-07-05T05:26:10;101747.34;;;20.76;49.55
60654;BME280;46476;53.614;10.048;2022-07-05T05:28:36;101751.41;;;20.80;49.31
60654;BME280;46476;53.614;10.048;2022-07-05T05:31:01;101745.03;;;20.80;49.37
60654;BME280;46476;53.614;10.048;2022-07-05T05:33:26;101748.66;;;20.80;49.37
60654;BME280;46476;53.614;10.048;2022-07-05T05:35:51;101739.09;;;20.76;49.25
60654;BME280;46476;53.614;10.048;2022-07-05T05:38:17;101754.09;;;20.73;49.31
60654;BME280;46476;53.614;10.048;2022-07-05T05:40:42;101755.50;;;20.69;49.42
60654;BME280;46476;53.614;10.048;2022-07-05T05:43:09;101748.75;;;20.72;49.32
60654;BME280;46476;53.614;10.048;2022-07-05T05:45:35;101754.16;;;20.80;48.81
60654;BME280;46476;53.614;10.048;2022-07-05T05:48:00;101751.47;;;20.87;48.81
60654;BME280;46476;53.614;10.048;2022-07-05T05:50:30;101759.16;;;20.91;48.60
60654;BME280;46476;53.614;10.048;2022-07-05T05:52:57;101754.50;;;20.92;48.71
60654;BME280;46476;53.614;10.048;2022-07-05T05:55:23;101756.19;;;20.93;48.73
60654;BME280;46476;53.614;10.048;2022-07-05T05:57:50;101757.72;;;20.96;48.58
60654;BME280;46476;53.614;10.048;2022-07-05T06:00:16;101756.19;;;20.93;48.74
60654;BME280;46476;53.614;10.048;2022-07-05T06:02:42;101758.34;;;20.98;48.53
60654;BME280;46476;53.614;10.048;2022-07-05T06:05:08;101759.03;;;21.00;48.59
60654;BME280;46476;53.614;10.048;2022-07-05T06:10:09;101758.50;;;21.11;48.30
60654;BME280;46476;53.614;10.048;2022-07-05T06:12:34;101765.31;;;21.15;48.12
60654;BME280;46476;53.614;10.048;2022-07-05T06:14:59;101763.41;;;21.16;47.95
60654;BME280;46476;53.614;10.048;2022-07-05T06:17:25;101776.31;;;21.15;47.53
60654;BME280;46476;53.614;10.048;2022-07-05T06:19:50;101777.50;;;21.06;47.65
60654;BME280;46476;53.614;10.048;2022-07-05T06:22:15;101770.81;;;20.93;47.93
60654;BME280;46476;53.614;10.048;2022-07-05T06:24:41;101781.09;;;20.85;48.22
60654;BME280;46476;53.614;10.048;2022-07-05T06:27:06;101785.69;;;20.77;48.59
60654;BME280;46476;53.614;10.048;2022-07-05T06:29:31;101781.41;;;20.75;48.46
60654;BME280;46476;53.614;10.048;2022-07-05T06:31:57;101784.72;;;20.70;48.66
60654;BME280;46476;53.614;10.048;2022-07-05T06:34:22;101791.44;;;20.68;48.82
60654;BME280;46476;53.614;10.048;2022-07-05T06:36:47;101786.81;;;20.68;48.38
60654;BME280;46476;53.614;10.048;2022-07-05T06:39:12;101782.34;;;20.67;48.86
60654;BME280;46476;53.614;10.048;2022-07-05T06:41:38;101784.63;;;20.64;48.95
60654;BME280;46476;53.614;10.048;2022-07-05T06:44:03;101787.66;;;20.69;48.88
60654;BME280;46476;53.614;10.048;2022-07-05T06:46:29;101789.00;;;20.73;48.87
60654;BME280;46476;53.614;10.048;2022-07-05T06:48:54;101790.72;;;20.74;49.04
60654;BME280;46476;53.614;10.048;2022-07-05T06:51:19;101784.16;;;20.75;48.96
60654;BME280;46476;53.614;10.048;2022-07-05T06:53:44;101784.53;;;20.72;48.78
60654;BME280;46476;53.614;10.048;2022-07-05T06:56:10;101783.91;;;20.70;48.70
60654;BME280;46476;53.614;10.048;2022-07-05T06:58:35;101783.13;;;20.76;48.61
60654;BME280;46476;53.614;10.048;2022-07-05T07:01:00;101792.03;;;20.78;48.94
60654;BME280;46476;53.614;10.048;2022-07-05T07:03:25;101786.16;;;20.81;48.97
60654;BME280;46476;53.614;10.048;2022-07-05T07:05:51;101792.75;;;20.87;48.90
60654;BME280;46476;53.614;10.048;2022-07-05T07:08:16;101785.81;;;20.91;48.81
60654;BME280;46476;53.614;10.048;2022-07-05T07:11:00;101781.63;;;20.95;48.17
60654;BME280;46476;53.614;10.048;2022-07-05T07:13:25;101780.56;;;20.96;48.97
60654;BME280;46476;53.614;10.048;2022-07-05T07:15:50;101791.38;;;20.98;49.08
60654;BME280;46476;53.614;10.048;2022-07-05T07:18:16;101784.84;;;20.99;48.71
60654;BME280;46476;53.614;10.048;2022-07-05T07:20:42;101794.34;;;20.96;48.64
60654;BME280;46476;53.614;10.048;2022-07-05T07:23:07;101794.75;;;20.93;47.83
60654;BME280;46476;53.614;10.048;2022-07-05T07:25:33;101790.69;;;20.89;47.55
60654;BME280;46476;53.614;10.048;2022-07-05T07:27:59;101792.28;;;20.83;47.84
60654;BME280;46476;53.614;10.048;2022-07-05T07:30:26;101789.34;;;20.85;47.98
60654;BME280;46476;53.614;10.048;2022-07-05T07:32:53;101795.72;;;20.85;48.12
60654;BME280;46476;53.614;10.048;2022-07-05T07:35:19;101799.78;;;20.89;47.81
60654;BME280;46476;53.614;10.048;2022-07-05T07:37:45;101804.25;;;20.90;47.03
60654;BME280;46476;53.614;10.048;2022-07-05T07:40:11;101804.63;;;20.87;46.64
60654;BME280;46476;53.614;10.048;2022-07-05T07:42:36;101802.25;;;20.84;46.70
60654;BME280;46476;53.614;10.048;2022-07-05T07:45:02;101805.59;;;20.80;47.12
60654;BME280;46476;53.614;10.048;2022-07-05T07:47:29;101806.25;;;20.82;47.31
60654;BME280;46476;53.614;10.048;2022-07-05T07:49:55;101801.88;;;20.87;47.70
60654;BME280;46476;53.614;10.048;2022-07-05T07:52:20;101801.75;;;20.96;47.80
60654;BME280;46476;53.614;10.048;2022-07-05T07:54:46;101809.69;;;21.05;48.04
60654;BME280;46476;53.614;10.048;2022-07-05T07:57:11;101802.22;;;21.21;48.03
60654;BME280;46476;53.614;10.048;2022-07-05T07:59:36;101799.41;;;21.36;47.42
60654;BME280;46476;53.614;10.048;2022-07-05T08:02:02;101799.53;;;21.49;47.79
60654;BME280;46476;53.614;10.048;2022-07-05T08:04:27;101802.34;;;21.56;47.85
60654;BME280;46476;53.614;10.048;2022-07-05T08:06:53;101803.72;;;21.67;47.13
60654;BME280;46476;53.614;10.048;2022-07-05T08:09:18;101792.97;;;21.72;46.90
60654;BME280;46476;53.614;10.048;2022-07-05T08:11:45;101800.22;;;21.80;46.39
60654;BME280;46476;53.614;10.048;2022-07-05T08:14:11;101792.25;;;21.91;46.00
60654;BME280;46476;53.614;10.048;2022-07-05T08:16:37;101796.53;;;22.01;46.46
60654;BME280;46476;53.614;10.048;2022-07-05T08:19:02;101800.00;;;22.09;45.50
60654;BME280;46476;53.614;10.048;2022-07-05T08:22:00;101800.00;;;22.09;45.43
60654;BME280;46476;53.614;10.048;2022-07-05T08:24:26;101811.69;;;22.18;46.25
60654;BME280;46476;53.614;10.048;2022-07-05T08:26:52;101808.34;;;22.23;45.93
60654;BME280;46476;53.614;10.048;2022-07-05T08:29:17;101813.06;;;22.29;45.52
60654;BME280;46476;53.614;10.048;2022-07-05T08:31:44;101817.59;;;22.37;44.33
60654;BME280;46476;53.614;10.048;2022-07-05T08:34:11;101809.94;;;22.39;43.93
60654;BME280;46476;53.614;10.048;2022-07-05T08:36:37;101813.38;;;22.48;43.50
60654;BME280;46476;53.614;10.048;2022-07-05T08:39:03;101805.06;;;22.41;42.36
60654;BME280;46476;53.614;10.048;2022-07-05T08:41:29;101806.91;;;22.34;42.83
60654;BME280;46476;53.614;10.048;2022-07-05T08:43:57;101811.13;;;22.30;43.68
60654;BME280;46476;53.614;10.048;2022-07-05T08:46:24;101805.81;;;22.28;42.23
60654;BME280;46476;53.614;10.048;2022-07-05T08:48:51;101809.03;;;22.32;43.20
60654;BME280;46476;53.614;10.048;2022-07-05T08:51:21;101812.50;;;22.40;43.67
60654;BME280;46476;53.614;10.048;2022-07-05T08:53:48;101817.81;;;22.42;43.12
60654;BME280;46476;53.614;10.048;2022-07-05T08:56:14;101815.69;;;22.44;43.16
60654;BME280;46476;53.614;10.048;2022-07-05T08:58:40;101821.66;;;22.48;40.26
60654;BME280;46476;53.614;10.048;2022-07-05T09:01:06;101813.34;;;22.41;40.95
60654;BME280;46476;53.614;10.048;2022-07-05T09:03:43;101812.22;;;22.35;40.28
60654;BME280;46476;53.614;10.048;2022-07-05T09:06:11;101806.88;;;22.27;40.01
60654;BME280;46476;53.614;10.048;2022-07-05T09:08:38;101819.16;;;22.24;40.81
60654;BME280;46476;53.614;10.048;2022-07-05T09:11:07;101806.88;;;22.27;40.74
60654;BME280;46476;53.614;10.048;2022-07-05T09:13:40;101824.94;;;22.30;40.46
60654;BME280;46476;53.614;10.048;2022-07-05T09:16:07;101822.38;;;22.28;40.09
60654;BME280;46476;53.614;10.048;2022-07-05T09:18:43;101820.66;;;22.27;39.93
60654;BME280;46476;53.614;10.048;2022-07-05T09:23:42;101816.91;;;22.35;39.14
60654;BME280;46476;53.614;10.048;2022-07-05T09:26:08;101819.88;;;22.33;39.00
60654;BME280;46476;53.614;10.048;2022-07-05T09:28:33;101825.13;;;22.28;40.30
60654;BME280;46476;53.614;10.048;2022-07-05T09:30:58;101828.34;;;22.32;39.75
60654;BME280;46476;53.614;10.048;2022-07-05T09:33:24;101827.69;;;22.30;40.24
60654;BME280;46476;53.614;10.048;2022-07-05T09:35:54;101831.09;;;22.32;40.42
60654;BME280;46476;53.614;10.048;2022-07-05T09:38:22;101824.53;;;22.33;40.23
60654;BME280;46476;53.614;10.048;2022-07-05T09:40:52;101831.31;;;22.30;39.51
60654;BME280;46476;53.614;10.048;2022-07-05T09:43:26;101822.34;;;22.21;39.76
60654;BME280;46476;53.614;10.048;2022-07-05T09:45:59;101822.50;;;22.13;39.80
60654;BME280;46476;53.614;10.048;2022-07-05T09:48:26;101825.88;;;22.08;40.38
60654;BME280;46476;53.614;10.048;2022-07-05T09:50:51;101826.88;;;22.01;39.72
60654;BME280;46476;53.614;10.048;2022-07-05T09:53:18;101834.09;;;22.02;39.64
60654;BME280;46476;53.614;10.048;2022-07-05T09:56:00;101828.44;;;22.10;39.46
60654;BME280;46476;53.614;10.048;2022-07-05T09:58:26;101829.97;;;22.19;39.41
60654;BME280;46476;53.614;10.048;2022-07-05T10:00:51;101840.44;;;22.31;39.50
60654;BME280;46476;53.614;10.048;2022-07-05T10:03:17;101829.91;;;22.41;38.41
60654;BME280;46476;53.614;10.048;2022-07-05T10:05:42;101836.31;;;22.48;38.55
60654;BME280;46476;53.614;10.048;2022-07-05T10:08:08;101833.53;;;22.48;37.71
60654;BME280;46476;53.614;10.048;2022-07-05T10:10:34;101843.31;;;22.51;37.55
60654;BME280;46476;53.614;10.048;2022-07-05T10:13:02;101828.50;;;22.58;37.47
60654;BME280;46476;53.614;10.048;2022-07-05T10:15:32;101829.59;;;22.64;37.26
60654;BME280;46476;53.614;10.048;2022-07-05T10:18:27;101828.91;;;22.55;38.28
60654;BME280;46476;53.614;10.048;2022-07-05T10:20:59;101837.84;;;22.57;37.96
60654;BME280;46476;53.614;10.048;2022-07-05T10:23:25;101828.09;;;22.62;37.62
60654;BME280;46476;53.614;10.048;2022-07-05T10:25:52;101831.91;;;22.61;37.43
60654;BME280;46476;53.614;10.048;2022-07-05T10:28:20;101834.69;;;22.61;37.54
60654;BME280;46476;53.614;10.048;2022-07-05T10:30:47;101829.81;;;22.63;37.40
60654;BME280;46476;53.614;10.048;2022-07-05T10:33:17;101838.09;;;22.63;37.55
60654;BME280;46476;53.614;10.048;2022-07-05T10:35:45;101830.44;;;22.65;37.44
60654;BME280;46476;53.614;10.048;2022-07-05T10:38:11;101829.19;;;22.67;37.05
60654;BME280;46476;53.614;10.048;2022-07-05T10:40:37;101826.19;;;22.62;37.56
60654;BME280;46476;53.614;10.048;2022-07-05T10:43:04;101822.16;;;22.65;38.39
60654;BME280;46476;53.614;10.048;2022-07-05T10:45:36;101821.09;;;22.66;38.93
60654;BME280;46476;53.614;10.048;2022-07-05T10:50:54;101820.06;;;22.73;38.67
60654;BME280;46476;53.614;10.048;2022-07-05T10:54:06;101818.38;;;22.79;38.35
60654;BME280;46476;53.614;10.048;2022-07-05T10:58:39;101820.75;;;22.82;38.42
60654;BME280;46476;53.614;10.048;2022-07-05T11:03:48;101816.28;;;22.81;38.73
60654;BME280;46476;53.614;10.048;2022-07-05T11:06:20;101818.59;;;22.78;38.67
60654;BME280;46476;53.614;10.048;2022-07-05T11:11:25;101812.00;;;22.72;38.16
60654;BME280;46476;53.614;10.048;2022-07-05T11:13:51;101823.06;;;22.79;38.08
60654;BME280;46476;53.614;10.048;2022-07-05T11:16:23;101815.00;;;22.84;38.08
60654;BME280;46476;53.614;10.048;2022-07-05T11:18:50;101806.50;;;22.85;37.90
60654;BME280;46476;53.614;10.048;2022-07-05T11:23:42;101812.47;;;22.89;37.85
60654;BME280;46476;53.614;10.048;2022-07-05T11:26:08;101806.53;;;22.92;37.80
60654;BME280;46476;53.614;10.048;2022-07-05T11:28:44;101805.25;;;22.95;37.75
60654;BME280;46476;53.614;10.048;2022-07-05T11:31:10;101808.47;;;22.91;37.84
60654;BME280;46476;53.614;10.048;2022-07-05T11:36:04;101813.75;;;22.93;37.89
60654;BME280;46476;53.614;10.048;2022-07-05T11:38:31;101802.50;;;22.95;37.89
60654;BME280;46476;53.614;10.048;2022-07-05T11:41:13;101803.56;;;22.94;37.91
60654;BME280;46476;53.614;10.048;2022-07-05T11:43:40;101805.47;;;22.93;37.53
60654;BME280;46476;53.614;10.048;2022-07-05T11:46:06;101796.97;;;22.95;37.68
60654;BME280;46476;53.614;10.048;2022-07-05T11:48:31;101794.88;;;22.97;37.55
60654;BME280;46476;53.614;10.048;2022-07-05T11:50:57;101795.94;;;22.96;37.36
60654;BME280;46476;53.614;10.048;2022-07-05T11:53:31;101790.19;;;22.97;37.87
60654;BME280;46476;53.614;10.048;2022-07-05T11:55:58;101793.16;;;22.96;37.34
60654;BME280;46476;53.614;10.048;2022-07-05T11:58:31;101805.91;;;22.97;37.61
60654;BME280;46476;53.614;10.048;2022-07-05T12:00:57;101794.22;;;22.95;37.83
60654;BME280;46476;53.614;10.048;2022-07-05T12:03:22;101800.38;;;22.90;38.16
60654;BME280;46476;53.614;10.048;2022-07-05T12:05:47;101798.25;;;22.92;38.39
60654;BME280;46476;53.614;10.048;2022-07-05T12:08:20;101796.97;;;22.88;38.86
60654;BME280;46476;53.614;10.048;2022-07-05T12:10:46;101797.41;;;22.85;38.78
60654;BME280;46476;53.614;10.048;2022-07-05T12:13:30;101790.19;;;22.90;38.38
60654;BME280;46476;53.614;10.048;2022-07-05T12:16:00;101793.78;;;22.91;38.31
60654;BME280;46476;53.614;10.048;2022-07-05T12:18:26;101801.22;;;22.90;37.76
60654;BME280;46476;53.614;10.048;2022-07-05T12:20:51;101794.19;;;22.81;37.62
60654;BME280;46476;53.614;10.048;2022-07-05T12:23:26;101787.63;;;22.82;37.94
60654;BME280;46476;53.614;10.048;2022-07-05T12:26:06;101796.31;;;22.86;38.33
60654;BME280;46476;53.614;10.048;2022-07-05T12:28:33;101793.38;;;22.87;38.28
60654;BME280;46476;53.614;10.048;2022-07-05T12:31:22;101795.69;;;22.90;38.35
60654;BME280;46476;53.614;10.048;2022-07-05T12:33:49;101786.75;;;22.88;38.45
60654;BME280;46476;53.614;10.048;2022-07-05T12:36:20;101792.06;;;22.83;38.35
60654;BME280;46476;53.614;10.048;2022-07-05T12:38:45;101795.69;;;22.84;38.36
60654;BME280;46476;53.614;10.048;2022-07-05T12:41:11;101792.28;;;22.82;38.51
60654;BME280;46476;53.614;10.048;2022-07-05T12:46:14;101790.38;;;22.82;39.16
60654;BME280;46476;53.614;10.048;2022-07-05T12:48:40;101788.91;;;22.86;39.11
60654;BME280;46476;53.614;10.048;2022-07-05T12:51:07;101792.50;;;22.87;38.90
60654;BME280;46476;53.614;10.048;2022-07-05T12:53:33;101782.72;;;22.91;39.00
60654;BME280;46476;53.614;10.048;2022-07-05T12:56:23;101791.88;;;22.91;38.82
60654;BME280;46476;53.614;10.048;2022-07-05T12:59:09;101798.03;;;22.94;38.73
60654;BME280;46476;53.614;10.048;2022-07-05T13:01:39;101794.44;;;22.93;39.12
60654;BME280;46476;53.614;10.048;2022-07-05T13:04:05;101789.34;;;22.90;39.17